Londonderry, VT (05148)

6:33 AM EST on February 11, 2016 (GMT -0500)
South Londonderry | | Change Station
CLOSE
Current Station
Personal Weather Station
Location: Londonderry, VT
Elevation: 1070 ft
Nearby Weather Stations

Elev 1070 ft 43.19 °N, 72.80 °W | Updated 4 seconds ago

Overcast
Overcast
18.7 °F
Feels Like 19 °F
N
2.7
Wind Variable Wind from NNW
Gusts 4.9 mph

Today
High -- | Low -- °F
--% Chance of Precip.
Yesterday
High -- | Low -- °F
Precip. -- in
Pressure 29.67 in
Visibility 1.0 miles
Clouds Mostly Cloudy 1300 ft
Mostly Cloudy 1900 ft
Overcast 5500 ft
Windchill 19 °F
Dew Point 9 °F
Humidity 65%
Rainfall 0.00 in
Snow Depth Not available.
6:55 AM 5:16 PM
Waxing Crescent, 11% visible
SPECI KVSF 111126Z AUTO 29008KT 1SM -SN BR BKN013 BKN019 OVC055 M07/M09 A2967 RMK AO2 P0000 T10671089
Pressure 29.67 in
Visibility 1.0 miles
Clouds Mostly Cloudy 1300 ft
Mostly Cloudy 1900 ft
Overcast 5500 ft
Windchill 19 °F
Dew Point 9 °F
Humidity 65%
Rainfall 0.00 in
Snow Depth Not available.
6:55 AM 5:16 PM
Waxing Crescent, 11% visible
SPECI KVSF 111126Z AUTO 29008KT 1SM -SN BR BKN013 BKN019 OVC055 M07/M09 A2967 RMK AO2 P0000 T10671089

10-Day Weather Forecast

Almanac

Astronomy

Feb. 11, 2016 Rise Set
Actual Time
Civil Twilight
Nautical Twilight
Astronomical Twilight
Moon
Length of Visible Light
Length of Day
Tomorrow will be .
, % of the Moon is Illuminated

Today's Extremes

State Highs State Lows

Community

WunderPhotos

Upload Photos

1,892,030 photos uploaded!

WunderBlog® & News

Nearby

Air Quality

  Air Quality AQ Index Pollutant
Not available.

Snow Depth

Station Depth Elevation

Earthquake Activity

City Distance Mag. Time & Date
Minimum magnitude displayed is 2.5.

Coastal Water Temperatures

Place Temperature

Stations

Nearby Weather Stations

Station Location Temp. Windchill Dew Point Humidity Wind Precip. Elev Updated Type
                   

Watches & Warnings

There are currently no watches in effect.